sensor_id;sensor_type;location;lat;lon;timestamp;P1;durP1;ratioP1;P2;durP2;ratioP2
35223;SDS011;21367;51.930;8.112;2023-12-20T00:00:01;18.08;;;8.30;;
35223;SDS011;21367;51.930;8.112;2023-12-20T00:05:08;22.90;;;8.23;;
35223;SDS011;21367;51.930;8.112;2023-12-20T00:10:12;14.70;;;6.53;;
35223;SDS011;21367;51.930;8.112;2023-12-20T00:15:15;17.05;;;5.47;;
35223;SDS011;21367;51.930;8.112;2023-12-20T00:20:22;21.02;;;5.70;;
35223;SDS011;21367;51.930;8.112;2023-12-20T00:25:25;15.77;;;5.07;;
35223;SDS011;21367;51.930;8.112;2023-12-20T00:30:29;12.57;;;4.03;;
35223;SDS011;21367;51.930;8.112;2023-12-20T00:35:35;10.48;;;3.60;;
35223;SDS011;21367;51.930;8.112;2023-12-20T00:40:39;21.60;;;4.18;;
35223;SDS011;21367;51.930;8.112;2023-12-20T00:45:42;17.92;;;4.07;;
35223;SDS011;21367;51.930;8.112;2023-12-20T00:50:49;15.77;;;5.82;;
35223;SDS011;21367;51.930;8.112;2023-12-20T00:55:52;20.65;;;5.18;;
35223;SDS011;21367;51.930;8.112;2023-12-20T01:00:56;18.58;;;4.53;;
35223;SDS011;21367;51.930;8.112;2023-12-20T01:06:02;12.05;;;4.25;;
35223;SDS011;21367;51.930;8.112;2023-12-20T01:11:06;14.05;;;3.70;;
35223;SDS011;21367;51.930;8.112;2023-12-20T01:16:10;14.95;;;3.65;;
35223;SDS011;21367;51.930;8.112;2023-12-20T01:21:16;17.13;;;3.85;;
35223;SDS011;21367;51.930;8.112;2023-12-20T01:26:20;18.48;;;4.03;;
35223;SDS011;21367;51.930;8.112;2023-12-20T01:31:24;20.02;;;3.90;;
35223;SDS011;21367;51.930;8.112;2023-12-20T01:36:30;14.82;;;3.92;;
35223;SDS011;21367;51.930;8.112;2023-12-20T01:41:34;17.80;;;4.03;;
35223;SDS011;21367;51.930;8.112;2023-12-20T01:46:37;13.90;;;3.92;;
35223;SDS011;21367;51.930;8.112;2023-12-20T01:51:44;16.92;;;4.47;;
35223;SDS011;21367;51.930;8.112;2023-12-20T01:56:48;18.83;;;4.03;;
35223;SDS011;21367;51.930;8.112;2023-12-20T02:01:53;19.48;;;4.80;;
35223;SDS011;21367;51.930;8.112;2023-12-20T02:06:59;23.98;;;6.00;;
35223;SDS011;21367;51.930;8.112;2023-12-20T02:12:03;25.40;;;5.00;;
35223;SDS011;21367;51.930;8.112;2023-12-20T02:17:07;23.83;;;5.30;;
35223;SDS011;21367;51.930;8.112;2023-12-20T02:22:13;18.13;;;4.53;;
35223;SDS011;21367;51.930;8.112;2023-12-20T02:27:18;16.25;;;4.72;;
35223;SDS011;21367;51.930;8.112;2023-12-20T02:32:22;24.67;;;6.03;;
35223;SDS011;21367;51.930;8.112;2023-12-20T02:37:30;34.78;;;7.00;;
35223;SDS011;21367;51.930;8.112;2023-12-20T02:42:35;27.85;;;6.53;;
35223;SDS011;21367;51.930;8.112;2023-12-20T02:47:38;22.30;;;7.75;;
35223;SDS011;21367;51.930;8.112;2023-12-20T02:52:45;26.25;;;7.97;;
35223;SDS011;21367;51.930;8.112;2023-12-20T02:57:48;31.58;;;7.47;;
35223;SDS011;21367;51.930;8.112;2023-12-20T03:02:52;27.25;;;8.38;;
35223;SDS011;21367;51.930;8.112;2023-12-20T03:07:58;28.65;;;7.47;;
35223;SDS011;21367;51.930;8.112;2023-12-20T03:13:02;28.25;;;7.65;;
35223;SDS011;21367;51.930;8.112;2023-12-20T03:18:06;22.85;;;7.18;;
35223;SDS011;21367;51.930;8.112;2023-12-20T03:23:12;19.23;;;7.60;;
35223;SDS011;21367;51.930;8.112;2023-12-20T03:28:16;28.52;;;8.23;;
35223;SDS011;21367;51.930;8.112;2023-12-20T03:33:19;27.42;;;7.53;;
35223;SDS011;21367;51.930;8.112;2023-12-20T03:38:26;33.17;;;8.75;;
35223;SDS011;21367;51.930;8.112;2023-12-20T03:43:29;33.72;;;6.78;;
35223;SDS011;21367;51.930;8.112;2023-12-20T03:48:33;46.67;;;7.78;;
35223;SDS011;21367;51.930;8.112;2023-12-20T03:53:39;25.27;;;6.18;;
35223;SDS011;21367;51.930;8.112;2023-12-20T03:58:42;30.08;;;6.32;;
35223;SDS011;21367;51.930;8.112;2023-12-20T04:03:46;24.42;;;5.47;;
35223;SDS011;21367;51.930;8.112;2023-12-20T04:08:52;42.65;;;8.50;;
35223;SDS011;21367;51.930;8.112;2023-12-20T04:13:56;26.20;;;5.70;;
35223;SDS011;21367;51.930;8.112;2023-12-20T04:18:59;27.35;;;5.53;;
35223;SDS011;21367;51.930;8.112;2023-12-20T04:24:05;45.65;;;6.10;;
35223;SDS011;21367;51.930;8.112;2023-12-20T04:34:12;41.20;;;5.93;;
35223;SDS011;21367;51.930;8.112;2023-12-20T04:39:19;27.80;;;5.13;;
35223;SDS011;21367;51.930;8.112;2023-12-20T04:44:23;29.45;;;4.85;;
35223;SDS011;21367;51.930;8.112;2023-12-20T04:49:27;20.13;;;4.18;;
35223;SDS011;21367;51.930;8.112;2023-12-20T04:54:33;29.48;;;5.63;;
35223;SDS011;21367;51.930;8.112;2023-12-20T04:59:38;37.08;;;5.85;;
35223;SDS011;21367;51.930;8.112;2023-12-20T05:04:42;26.40;;;6.10;;
35223;SDS011;21367;51.930;8.112;2023-12-20T05:09:48;40.10;;;6.03;;
35223;SDS011;21367;51.930;8.112;2023-12-20T05:14:52;37.85;;;6.80;;
35223;SDS011;21367;51.930;8.112;2023-12-20T05:19:55;49.60;;;7.32;;
35223;SDS011;21367;51.930;8.112;2023-12-20T05:25:01;38.60;;;6.97;;
35223;SDS011;21367;51.930;8.112;2023-12-20T05:30:06;35.50;;;6.65;;
35223;SDS011;21367;51.930;8.112;2023-12-20T05:35:10;42.05;;;7.20;;
35223;SDS011;21367;51.930;8.112;2023-12-20T05:40:17;36.28;;;7.53;;
35223;SDS011;21367;51.930;8.112;2023-12-20T05:45:21;36.60;;;7.30;;
35223;SDS011;21367;51.930;8.112;2023-12-20T05:50:24;40.25;;;7.65;;
35223;SDS011;21367;51.930;8.112;2023-12-20T05:55:30;43.30;;;8.68;;
35223;SDS011;21367;51.930;8.112;2023-12-20T06:00:35;38.63;;;7.47;;
35223;SDS011;21367;51.930;8.112;2023-12-20T06:05:38;34.92;;;6.82;;
35223;SDS011;21367;51.930;8.112;2023-12-20T06:10:44;38.35;;;7.88;;
35223;SDS011;21367;51.930;8.112;2023-12-20T06:15:48;30.45;;;7.28;;
35223;SDS011;21367;51.930;8.112;2023-12-20T06:20:52;35.75;;;6.32;;
35223;SDS011;21367;51.930;8.112;2023-12-20T06:25:58;28.88;;;7.40;;
35223;SDS011;21367;51.930;8.112;2023-12-20T06:31:02;37.63;;;7.07;;
35223;SDS011;21367;51.930;8.112;2023-12-20T06:36:05;30.48;;;6.95;;
35223;SDS011;21367;51.930;8.112;2023-12-20T06:41:15;34.67;;;6.57;;
35223;SDS011;21367;51.930;8.112;2023-12-20T06:46:18;42.80;;;7.03;;
35223;SDS011;21367;51.930;8.112;2023-12-20T06:51:22;31.25;;;6.10;;
35223;SDS011;21367;51.930;8.112;2023-12-20T06:56:29;32.92;;;6.45;;
35223;SDS011;21367;51.930;8.112;2023-12-20T07:01:32;38.70;;;7.43;;
35223;SDS011;21367;51.930;8.112;2023-12-20T07:06:36;32.35;;;6.32;;
35223;SDS011;21367;51.930;8.112;2023-12-20T07:11:42;45.65;;;6.93;;
35223;SDS011;21367;51.930;8.112;2023-12-20T07:16:46;37.60;;;6.88;;
35223;SDS011;21367;51.930;8.112;2023-12-20T07:21:49;42.33;;;7.03;;
35223;SDS011;21367;51.930;8.112;2023-12-20T07:26:56;38.45;;;6.13;;
35223;SDS011;21367;51.930;8.112;2023-12-20T07:31:59;39.13;;;6.68;;
35223;SDS011;21367;51.930;8.112;2023-12-20T07:37:03;35.92;;;7.05;;
35223;SDS011;21367;51.930;8.112;2023-12-20T07:42:09;23.10;;;5.72;;
35223;SDS011;21367;51.930;8.112;2023-12-20T07:47:13;35.83;;;5.95;;
35223;SDS011;21367;51.930;8.112;2023-12-20T07:52:22;43.08;;;6.47;;
35223;SDS011;21367;51.930;8.112;2023-12-20T07:57:30;34.50;;;6.90;;
35223;SDS011;21367;51.930;8.112;2023-12-20T08:02:34;36.00;;;6.80;;
35223;SDS011;21367;51.930;8.112;2023-12-20T08:07:39;34.65;;;6.15;;
35223;SDS011;21367;51.930;8.112;2023-12-20T08:12:45;48.70;;;5.72;;
35223;SDS011;21367;51.930;8.112;2023-12-20T08:17:49;30.17;;;6.13;;
35223;SDS011;21367;51.930;8.112;2023-12-20T08:22:53;39.45;;;7.10;;
35223;SDS011;21367;51.930;8.112;2023-12-20T08:27:59;28.00;;;6.68;;
35223;SDS011;21367;51.930;8.112;2023-12-20T08:33:05;46.95;;;7.07;;
35223;SDS011;21367;51.930;8.112;2023-12-20T08:38:13;40.50;;;6.88;;
35223;SDS011;21367;51.930;8.112;2023-12-20T08:43:19;47.88;;;6.63;;
35223;SDS011;21367;51.930;8.112;2023-12-20T08:48:23;37.40;;;7.78;;
35223;SDS011;21367;51.930;8.112;2023-12-20T08:53:26;32.97;;;7.65;;
35223;SDS011;21367;51.930;8.112;2023-12-20T08:58:32;47.15;;;8.13;;
35223;SDS011;21367;51.930;8.112;2023-12-20T09:08:39;34.00;;;7.03;;
35223;SDS011;21367;51.930;8.112;2023-12-20T09:13:46;24.55;;;6.47;;
35223;SDS011;21367;51.930;8.112;2023-12-20T09:18:49;44.95;;;8.35;;
35223;SDS011;21367;51.930;8.112;2023-12-20T09:23:52;50.63;;;9.40;;
35223;SDS011;21367;51.930;8.112;2023-12-20T09:28:59;34.60;;;8.30;;
35223;SDS011;21367;51.930;8.112;2023-12-20T09:34:02;45.80;;;10.88;;
35223;SDS011;21367;51.930;8.112;2023-12-20T09:39:06;50.33;;;8.15;;
35223;SDS011;21367;51.930;8.112;2023-12-20T09:44:14;41.55;;;8.35;;
35223;SDS011;21367;51.930;8.112;2023-12-20T09:49:19;38.63;;;7.88;;
35223;SDS011;21367;51.930;8.112;2023-12-20T09:54:23;32.95;;;5.90;;
35223;SDS011;21367;51.930;8.112;2023-12-20T09:59:31;33.45;;;7.53;;
35223;SDS011;21367;51.930;8.112;2023-12-20T10:09:38;32.47;;;6.32;;
35223;SDS011;21367;51.930;8.112;2023-12-20T10:14:44;39.28;;;6.93;;
35223;SDS011;21367;51.930;8.112;2023-12-20T10:19:47;33.95;;;5.80;;
35223;SDS011;21367;51.930;8.112;2023-12-20T10:24:51;35.55;;;7.95;;
35223;SDS011;21367;51.930;8.112;2023-12-20T10:30:01;36.38;;;5.95;;
35223;SDS011;21367;51.930;8.112;2023-12-20T10:35:05;28.02;;;4.70;;
35223;SDS011;21367;51.930;8.112;2023-12-20T10:40:09;28.20;;;5.80;;
35223;SDS011;21367;51.930;8.112;2023-12-20T10:45:17;39.20;;;5.47;;
35223;SDS011;21367;51.930;8.112;2023-12-20T10:50:21;36.40;;;5.55;;
35223;SDS011;21367;51.930;8.112;2023-12-20T10:55:25;30.38;;;5.57;;
35223;SDS011;21367;51.930;8.112;2023-12-20T11:00:32;31.77;;;5.22;;
35223;SDS011;21367;51.930;8.112;2023-12-20T11:05:38;30.52;;;4.93;;
35223;SDS011;21367;51.930;8.112;2023-12-20T11:10:51;34.30;;;5.40;;
35223;SDS011;21367;51.930;8.112;2023-12-20T11:16:05;28.77;;;4.72;;
35223;SDS011;21367;51.930;8.112;2023-12-20T11:21:09;27.50;;;5.88;;
35223;SDS011;21367;51.930;8.112;2023-12-20T11:26:15;27.83;;;5.60;;
35223;SDS011;21367;51.930;8.112;2023-12-20T11:31:22;29.90;;;5.65;;
35223;SDS011;21367;51.930;8.112;2023-12-20T11:36:32;24.45;;;4.93;;
35223;SDS011;21367;51.930;8.112;2023-12-20T11:41:36;26.48;;;4.20;;
35223;SDS011;21367;51.930;8.112;2023-12-20T11:46:42;28.45;;;4.45;;
35223;SDS011;21367;51.930;8.112;2023-12-20T11:51:47;17.52;;;4.00;;
35223;SDS011;21367;51.930;8.112;2023-12-20T11:56:50;32.75;;;4.93;;
35223;SDS011;21367;51.930;8.112;2023-12-20T12:01:58;36.75;;;5.50;;
35223;SDS011;21367;51.930;8.112;2023-12-20T12:07:01;30.58;;;4.53;;
35223;SDS011;21367;51.930;8.112;2023-12-20T12:12:06;20.42;;;3.72;;
35223;SDS011;21367;51.930;8.112;2023-12-20T12:17:13;25.45;;;4.65;;
35223;SDS011;21367;51.930;8.112;2023-12-20T12:22:17;23.17;;;4.28;;
35223;SDS011;21367;51.930;8.112;2023-12-20T12:27:26;17.35;;;3.53;;
35223;SDS011;21367;51.930;8.112;2023-12-20T12:32:33;31.70;;;4.80;;
35223;SDS011;21367;51.930;8.112;2023-12-20T12:37:37;24.48;;;4.25;;
35223;SDS011;21367;51.930;8.112;2023-12-20T12:42:42;28.80;;;4.20;;
35223;SDS011;21367;51.930;8.112;2023-12-20T12:47:49;34.08;;;4.68;;
35223;SDS011;21367;51.930;8.112;2023-12-20T12:52:58;27.35;;;4.22;;
35223;SDS011;21367;51.930;8.112;2023-12-20T12:58:03;27.33;;;4.03;;
35223;SDS011;21367;51.930;8.112;2023-12-20T13:03:10;30.70;;;3.65;;
35223;SDS011;21367;51.930;8.112;2023-12-20T13:13:17;31.20;;;3.53;;
35223;SDS011;21367;51.930;8.112;2023-12-20T13:18:24;29.10;;;3.30;;
35223;SDS011;21367;51.930;8.112;2023-12-20T13:23:28;26.50;;;4.20;;
35223;SDS011;21367;51.930;8.112;2023-12-20T13:28:31;5.18;;;1.15;;
35223;SDS011;21367;51.930;8.112;2023-12-20T13:33:38;9.82;;;1.15;;
35223;SDS011;21367;51.930;8.112;2023-12-20T13:38:42;3.25;;;0.52;;
35223;SDS011;21367;51.930;8.112;2023-12-20T13:43:46;7.03;;;0.80;;
35223;SDS011;21367;51.930;8.112;2023-12-20T13:48:52;4.10;;;0.60;;
35223;SDS011;21367;51.930;8.112;2023-12-20T13:53:55;4.85;;;1.52;;
35223;SDS011;21367;51.930;8.112;2023-12-20T13:58:59;8.25;;;1.05;;
35223;SDS011;21367;51.930;8.112;2023-12-20T14:04:05;10.57;;;1.67;;
35223;SDS011;21367;51.930;8.112;2023-12-20T14:09:11;14.63;;;2.10;;
35223;SDS011;21367;51.930;8.112;2023-12-20T14:14:15;9.43;;;2.03;;
35223;SDS011;21367;51.930;8.112;2023-12-20T14:19:21;6.00;;;1.08;;
35223;SDS011;21367;51.930;8.112;2023-12-20T14:24:25;8.02;;;1.30;;
35223;SDS011;21367;51.930;8.112;2023-12-20T14:29:29;4.93;;;1.58;;
35223;SDS011;21367;51.930;8.112;2023-12-20T14:34:35;10.07;;;1.50;;
35223;SDS011;21367;51.930;8.112;2023-12-20T14:44:42;8.50;;;1.15;;
35223;SDS011;21367;51.930;8.112;2023-12-20T14:49:48;10.68;;;3.08;;
35223;SDS011;21367;51.930;8.112;2023-12-20T14:54:52;10.98;;;2.00;;
35223;SDS011;21367;51.930;8.112;2023-12-20T14:59:56;17.00;;;3.30;;
35223;SDS011;21367;51.930;8.112;2023-12-20T15:05:02;16.65;;;2.70;;
35223;SDS011;21367;51.930;8.112;2023-12-20T15:10:06;35.08;;;4.10;;
35223;SDS011;21367;51.930;8.112;2023-12-20T15:15:11;23.00;;;4.40;;
35223;SDS011;21367;51.930;8.112;2023-12-20T15:20:17;32.08;;;7.60;;
35223;SDS011;21367;51.930;8.112;2023-12-20T15:25:22;26.55;;;5.70;;
35223;SDS011;21367;51.930;8.112;2023-12-20T15:30:26;32.55;;;6.07;;
35223;SDS011;21367;51.930;8.112;2023-12-20T15:35:32;23.73;;;5.43;;
35223;SDS011;21367;51.930;8.112;2023-12-20T15:40:36;25.83;;;6.30;;
35223;SDS011;21367;51.930;8.112;2023-12-20T15:45:40;26.67;;;5.57;;
35223;SDS011;21367;51.930;8.112;2023-12-20T15:50:46;40.38;;;7.13;;
35223;SDS011;21367;51.930;8.112;2023-12-20T15:55:49;23.83;;;6.97;;
35223;SDS011;21367;51.930;8.112;2023-12-20T16:00:53;23.92;;;6.18;;
35223;SDS011;21367;51.930;8.112;2023-12-20T16:05:59;28.85;;;7.28;;
35223;SDS011;21367;51.930;8.112;2023-12-20T16:11:03;32.83;;;6.50;;
35223;SDS011;21367;51.930;8.112;2023-12-20T16:16:06;26.50;;;7.13;;
35223;SDS011;21367;51.930;8.112;2023-12-20T16:21:13;19.98;;;7.63;;
35223;SDS011;21367;51.930;8.112;2023-12-20T16:26:17;37.90;;;11.80;;
35223;SDS011;21367;51.930;8.112;2023-12-20T16:31:21;29.75;;;9.90;;
35223;SDS011;21367;51.930;8.112;2023-12-20T16:36:27;32.72;;;10.45;;
35223;SDS011;21367;51.930;8.112;2023-12-20T16:41:51;33.33;;;9.32;;
35223;SDS011;21367;51.930;8.112;2023-12-20T16:46:55;32.75;;;9.07;;
35223;SDS011;21367;51.930;8.112;2023-12-20T16:52:02;42.72;;;10.48;;
35223;SDS011;21367;51.930;8.112;2023-12-20T16:57:06;46.03;;;11.32;;
35223;SDS011;21367;51.930;8.112;2023-12-20T17:02:10;44.05;;;9.30;;
35223;SDS011;21367;51.930;8.112;2023-12-20T17:07:16;32.97;;;8.98;;
35223;SDS011;21367;51.930;8.112;2023-12-20T17:12:19;41.45;;;11.38;;
35223;SDS011;21367;51.930;8.112;2023-12-20T17:17:25;26.52;;;9.27;;
35223;SDS011;21367;51.930;8.112;2023-12-20T17:22:31;44.63;;;11.15;;
35223;SDS011;21367;51.930;8.112;2023-12-20T17:27:34;41.97;;;11.43;;
35223;SDS011;21367;51.930;8.112;2023-12-20T17:32:38;38.78;;;12.60;;
35223;SDS011;21367;51.930;8.112;2023-12-20T17:37:51;39.15;;;11.93;;
35223;SDS011;21367;51.930;8.112;2023-12-20T17:42:55;35.03;;;11.20;;
35223;SDS011;21367;51.930;8.112;2023-12-20T17:48:00;42.97;;;13.75;;
35223;SDS011;21367;51.930;8.112;2023-12-20T17:53:06;55.63;;;14.10;;
35223;SDS011;21367;51.930;8.112;2023-12-20T17:58:09;43.67;;;12.43;;
35223;SDS011;21367;51.930;8.112;2023-12-20T18:03:13;39.63;;;12.90;;
35223;SDS011;21367;51.930;8.112;2023-12-20T18:08:19;41.45;;;11.70;;
35223;SDS011;21367;51.930;8.112;2023-12-20T18:13:24;45.47;;;12.80;;
35223;SDS011;21367;51.930;8.112;2023-12-20T18:18:28;42.00;;;11.82;;
35223;SDS011;21367;51.930;8.112;2023-12-20T18:23:34;47.58;;;13.30;;
35223;SDS011;21367;51.930;8.112;2023-12-20T18:28:38;42.00;;;12.90;;
35223;SDS011;21367;51.930;8.112;2023-12-20T18:33:41;42.28;;;15.02;;
35223;SDS011;21367;51.930;8.112;2023-12-20T18:38:47;40.10;;;13.05;;
35223;SDS011;21367;51.930;8.112;2023-12-20T18:43:51;47.35;;;14.57;;
35223;SDS011;21367;51.930;8.112;2023-12-20T18:48:55;42.85;;;15.43;;
35223;SDS011;21367;51.930;8.112;2023-12-20T18:54:02;39.40;;;16.75;;
35223;SDS011;21367;51.930;8.112;2023-12-20T18:59:07;45.78;;;19.95;;
35223;SDS011;21367;51.930;8.112;2023-12-20T19:04:11;51.05;;;18.05;;
35223;SDS011;21367;51.930;8.112;2023-12-20T19:09:19;48.17;;;20.52;;
35223;SDS011;21367;51.930;8.112;2023-12-20T19:14:23;45.55;;;16.83;;
35223;SDS011;21367;51.930;8.112;2023-12-20T19:19:27;46.55;;;19.23;;
35223;SDS011;21367;51.930;8.112;2023-12-20T19:24:33;52.05;;;19.05;;
35223;SDS011;21367;51.930;8.112;2023-12-20T19:29:37;45.60;;;19.42;;
35223;SDS011;21367;51.930;8.112;2023-12-20T19:34:41;58.15;;;21.50;;
35223;SDS011;21367;51.930;8.112;2023-12-20T19:39:47;58.17;;;22.02;;
35223;SDS011;21367;51.930;8.112;2023-12-20T19:44:51;40.28;;;19.40;;
35223;SDS011;21367;51.930;8.112;2023-12-20T19:49:55;50.45;;;19.98;;
35223;SDS011;21367;51.930;8.112;2023-12-20T19:55:02;47.10;;;20.50;;
35223;SDS011;21367;51.930;8.112;2023-12-20T20:00:07;52.03;;;20.85;;
35223;SDS011;21367;51.930;8.112;2023-12-20T20:05:15;40.75;;;14.93;;
35223;SDS011;21367;51.930;8.112;2023-12-20T20:10:22;42.35;;;20.10;;
35223;SDS011;21367;51.930;8.112;2023-12-20T20:15:29;36.40;;;12.38;;
35223;SDS011;21367;51.930;8.112;2023-12-20T20:20:32;28.40;;;11.88;;
35223;SDS011;21367;51.930;8.112;2023-12-20T20:25:39;39.78;;;16.33;;
35223;SDS011;21367;51.930;8.112;2023-12-20T20:30:43;37.13;;;16.98;;
35223;SDS011;21367;51.930;8.112;2023-12-20T20:35:46;38.88;;;18.35;;
35223;SDS011;21367;51.930;8.112;2023-12-20T20:40:53;36.15;;;17.27;;
35223;SDS011;21367;51.930;8.112;2023-12-20T20:45:58;43.58;;;19.08;;
35223;SDS011;21367;51.930;8.112;2023-12-20T20:51:02;40.25;;;14.98;;
35223;SDS011;21367;51.930;8.112;2023-12-20T20:56:09;33.38;;;14.57;;
35223;SDS011;21367;51.930;8.112;2023-12-20T21:01:13;33.45;;;15.75;;
35223;SDS011;21367;51.930;8.112;2023-12-20T21:06:17;31.63;;;12.98;;
35223;SDS011;21367;51.930;8.112;2023-12-20T21:11:25;25.47;;;13.17;;
35223;SDS011;21367;51.930;8.112;2023-12-20T21:16:30;37.08;;;14.07;;
35223;SDS011;21367;51.930;8.112;2023-12-20T21:21:33;28.70;;;13.15;;
35223;SDS011;21367;51.930;8.112;2023-12-20T21:26:40;28.67;;;14.02;;
35223;SDS011;21367;51.930;8.112;2023-12-20T21:31:43;23.13;;;11.32;;
35223;SDS011;21367;51.930;8.112;2023-12-20T21:36:47;26.70;;;13.27;;
35223;SDS011;21367;51.930;8.112;2023-12-20T21:41:54;24.73;;;13.15;;
35223;SDS011;21367;51.930;8.112;2023-12-20T21:46:57;29.02;;;13.60;;
35223;SDS011;21367;51.930;8.112;2023-12-20T21:52:01;24.63;;;13.95;;
35223;SDS011;21367;51.930;8.112;2023-12-20T21:57:08;28.50;;;12.90;;
35223;SDS011;21367;51.930;8.112;2023-12-20T22:02:11;21.70;;;12.45;;
35223;SDS011;21367;51.930;8.112;2023-12-20T22:07:15;28.30;;;13.52;;
35223;SDS011;21367;51.930;8.112;2023-12-20T22:12:22;24.30;;;12.82;;
35223;SDS011;21367;51.930;8.112;2023-12-20T22:22:29;26.65;;;12.63;;
35223;SDS011;21367;51.930;8.112;2023-12-20T22:27:35;23.02;;;13.30;;
35223;SDS011;21367;51.930;8.112;2023-12-20T22:32:39;24.52;;;12.80;;
35223;SDS011;21367;51.930;8.112;2023-12-20T22:37:42;23.48;;;12.13;;
35223;SDS011;21367;51.930;8.112;2023-12-20T22:42:49;21.10;;;8.52;;
35223;SDS011;21367;51.930;8.112;2023-12-20T22:47:52;24.80;;;14.55;;
35223;SDS011;21367;51.930;8.112;2023-12-20T22:52:56;25.90;;;13.40;;
35223;SDS011;21367;51.930;8.112;2023-12-20T22:58:02;22.75;;;12.52;;
35223;SDS011;21367;51.930;8.112;2023-12-20T23:03:06;22.80;;;12.82;;
35223;SDS011;21367;51.930;8.112;2023-12-20T23:08:10;23.90;;;10.20;;
35223;SDS011;21367;51.930;8.112;2023-12-20T23:13:17;22.17;;;10.65;;
35223;SDS011;21367;51.930;8.112;2023-12-20T23:18:21;16.13;;;7.65;;
35223;SDS011;21367;51.930;8.112;2023-12-20T23:23:25;18.48;;;11.10;;
35223;SDS011;21367;51.930;8.112;2023-12-20T23:28:31;16.88;;;9.95;;
35223;SDS011;21367;51.930;8.112;2023-12-20T23:33:35;16.15;;;7.75;;
35223;SDS011;21367;51.930;8.112;2023-12-20T23:38:39;17.98;;;8.95;;
35223;SDS011;21367;51.930;8.112;2023-12-20T23:43:45;12.82;;;7.68;;
35223;SDS011;21367;51.930;8.112;2023-12-20T23:48:48;18.17;;;9.88;;
35223;SDS011;21367;51.930;8.112;2023-12-20T23:53:52;14.45;;;9.70;;
35223;SDS011;21367;51.930;8.112;2023-12-20T23:58:59;13.70;;;8.30;;
